Time;durP1;ratioP1;P1;durP2;ratioP2;P2;SDS_P1;SDS_P2;PMS_P1;PMS_P2;Temp;Humidity;BMP_temperature;BMP_pressure;BME280_temperature;BME280_humidity;BME280_pressure;Samples;Min_cycle;Max_cycle;Signal;HPM_P1;HPM_P2
2021/08/05 00:02:57;;;;;;;52.47;41.97;;;;;15.70;100660.00;;;;10626531;28;20190;-77
2021/08/05 00:07:58;;;;;;;58.77;43.80;;;;;15.70;100665.00;;;;10590523;28;20204;-77
2021/08/05 00:13:01;;;;;;;60.20;46.40;;;;;15.70;100661.00;;;;10590645;28;20788;-77
2021/08/05 00:18:03;;;;;;;55.97;43.87;;;;;15.70;100660.00;;;;10557213;28;20211;-77
2021/08/05 00:23:05;;;;;;;56.23;42.93;;;;;15.70;100655.00;;;;10607538;28;20195;-77
2021/08/05 00:28:07;;;;;;;57.03;42.00;;;;;15.70;100651.00;;;;10591522;28;20306;-77
2021/08/05 00:33:09;;;;;;;62.43;47.63;;;;;15.70;100650.00;;;;10590636;28;20666;-77
2021/08/05 00:38:11;;;;;;;61.17;45.40;;;;;15.70;100639.00;;;;10589750;28;20593;-76
2021/08/05 00:43:14;;;;;;;59.97;45.77;;;;;15.70;100639.00;;;;10572996;27;20203;-77
2021/08/05 00:48:17;;;;;;;66.13;48.77;;;;;15.70;100641.00;;;;10507471;28;20551;-77
2021/08/05 00:53:20;;;;;;;61.10;46.20;;;;;15.70;100641.00;;;;10505327;28;20217;-76
2021/08/05 00:58:22;;;;;;;65.73;48.20;;;;;15.70;100627.00;;;;10556021;28;20184;-76
2021/08/05 01:03:28;;;;;;;66.43;46.20;;;;;15.70;100623.00;;;;10579044;27;20219;-78
2021/08/05 01:08:34;;;;;;;67.43;48.37;;;;;15.70;100629.00;;;;10582431;27;20302;-78
2021/08/05 01:13:55;;;;;;;66.70;47.43;;;;;15.70;100625.00;;;;10616099;27;20192;-78
2021/08/05 01:19:04;;;;;;;64.37;45.33;;;;;15.70;100616.00;;;;10582348;27;20596;-78
2021/08/05 01:24:11;;;;;;;63.60;45.40;;;;;15.70;100617.00;;;;10566448;27;20200;-78
2021/08/05 01:29:15;;;;;;;62.42;45.13;;;;;15.80;100616.00;;;;10508213;28;20208;-78
2021/08/05 01:34:18;;;;;;;68.97;48.53;;;;;15.80;100608.00;;;;10556061;28;20216;-78
2021/08/05 01:39:20;;;;;;;75.17;50.20;;;;;15.80;100608.00;;;;10522987;28;20192;-78
2021/08/05 01:44:24;;;;;;;67.27;45.43;;;;;15.80;100606.00;;;;10555730;28;20206;-79
2021/08/05 01:49:27;;;;;;;69.43;47.83;;;;;15.80;100601.00;;;;10539183;28;20208;-79
2021/08/05 01:54:29;;;;;;;69.03;46.83;;;;;15.70;100598.00;;;;10537779;28;20201;-78
2021/08/05 01:59:31;;;;;;;73.33;48.20;;;;;15.70;100597.00;;;;10497919;28;20189;-79
2021/08/05 02:05:05;;;;;;;68.53;48.23;;;;;15.60;100588.00;;;;10513878;28;20212;-79
2021/08/05 02:10:35;;;;;;;60.03;41.33;;;;;15.50;100589.00;;;;10513278;28;20208;-79
2021/08/05 02:15:41;;;;;;;56.10;41.33;;;;;15.50;100592.00;;;;10513200;28;20193;-78
2021/08/05 02:20:45;;;;;;;62.77;42.40;;;;;15.40;100588.00;;;;10513656;28;20184;-79
2021/08/05 02:25:49;;;;;;;67.77;44.47;;;;;15.40;100581.00;;;;10524448;28;20207;-79
2021/08/05 02:30:53;;;;;;;65.83;43.10;;;;;15.40;100588.00;;;;10538212;28;20204;-79
2021/08/05 02:35:56;;;;;;;72.90;46.83;;;;;15.40;100576.00;;;;10538431;28;20536;-79
2021/08/05 02:41:02;;;;;;;88.73;53.63;;;;;15.40;100580.00;;;;10538838;28;20212;-79
2021/08/05 02:46:07;;;;;;;88.40;52.90;;;;;15.30;100583.00;;;;10522170;28;20250;-79
2021/08/05 02:51:10;;;;;;;86.73;51.73;;;;;15.40;100570.00;;;;10553960;28;20208;-78
2021/08/05 02:56:13;;;;;;;86.27;52.60;;;;;15.40;100570.00;;;;10512394;28;20204;-79
2021/08/05 03:01:19;;;;;;;89.63;53.13;;;;;15.40;100574.00;;;;10527849;28;20219;-79
2021/08/05 03:06:28;;;;;;;82.57;51.63;;;;;15.40;100570.00;;;;10495083;28;20199;-79
2021/08/05 03:11:30;;;;;;;91.90;51.83;;;;;15.40;100563.00;;;;10511076;28;20209;-78
2021/08/05 03:16:32;;;;;;;93.90;55.30;;;;;15.50;100561.00;;;;10494145;28;20196;-79
2021/08/05 03:21:34;;;;;;;97.93;55.63;;;;;15.50;100567.00;;;;10493966;28;20243;-79
2021/08/05 03:26:36;;;;;;;91.13;55.83;;;;;15.50;100562.00;;;;10492281;28;20279;-79
2021/08/05 03:31:38;;;;;;;86.80;53.67;;;;;15.50;100545.00;;;;10510817;28;20201;-79
2021/08/05 03:36:40;;;;;;;84.93;53.03;;;;;15.50;100560.00;;;;10510616;28;20201;-78
2021/08/05 03:41:42;;;;;;;86.00;54.00;;;;;15.50;100546.00;;;;10493523;28;20181;-79
2021/08/05 03:46:45;;;;;;;91.67;54.03;;;;;15.50;100537.00;;;;10521198;28;20196;-79
2021/08/05 03:51:47;;;;;;;91.27;54.17;;;;;15.60;100536.00;;;;10517894;28;20215;-79
2021/08/05 03:56:48;;;;;;;85.60;54.03;;;;;15.50;100541.00;;;;10538817;28;20193;-79
2021/08/05 04:01:50;;;;;;;83.37;52.17;;;;;15.60;100541.00;;;;10476982;28;20181;-79
2021/08/05 04:06:54;;;;;;;88.47;53.27;;;;;15.50;100535.00;;;;10493218;28;20193;-78
2021/08/05 04:11:56;;;;;;;88.03;52.80;;;;;15.50;100538.00;;;;10508432;28;20209;-79
2021/08/05 04:16:58;;;;;;;88.10;55.00;;;;;15.50;100536.00;;;;10491590;28;20636;-79
2021/08/05 04:22:01;;;;;;;88.30;54.60;;;;;15.50;100540.00;;;;10508948;28;20208;-79
2021/08/05 04:27:04;;;;;;;92.63;56.77;;;;;15.50;100539.00;;;;10491328;28;20204;-79
2021/08/05 04:32:06;;;;;;;102.73;59.20;;;;;15.60;100541.00;;;;10491923;28;20244;-79
2021/08/05 04:37:08;;;;;;;94.70;56.93;;;;;15.60;100539.00;;;;10493705;28;20196;-79
2021/08/05 04:42:10;;;;;;;112.60;63.73;;;;;15.60;100538.00;;;;10498812;28;20197;-79
2021/08/05 04:47:12;;;;;;;124.10;69.13;;;;;15.70;100523.00;;;;10499230;28;20548;-78
2021/08/05 04:52:13;;;;;;;124.47;67.47;;;;;15.80;100533.00;;;;10498817;28;20209;-79
2021/08/05 04:57:15;;;;;;;121.47;65.82;;;;;15.90;100530.00;;;;10530576;28;20618;-78
2021/08/05 05:02:17;;;;;;;107.23;61.43;;;;;16.00;100517.00;;;;10531850;28;20200;-78
2021/08/05 05:07:19;;;;;;;110.93;62.20;;;;;16.10;100513.00;;;;10498315;28;20189;-78
2021/08/05 05:12:21;;;;;;;95.13;56.03;;;;;16.20;100516.00;;;;10514650;28;20660;-79
2021/08/05 05:17:23;;;;;;;96.85;57.22;;;;;16.30;100516.00;;;;10530976;28;20216;-78
2021/08/05 05:22:25;;;;;;;94.93;56.30;;;;;16.30;100500.00;;;;10513742;28;20196;-78
2021/08/05 05:27:27;;;;;;;90.53;53.73;;;;;16.30;100504.00;;;;10496635;28;20197;-78
2021/08/05 05:32:31;;;;;;;90.95;53.20;;;;;16.20;100489.00;;;;10479730;28;20221;-79
2021/08/05 05:37:33;;;;;;;87.33;54.90;;;;;16.20;100502.00;;;;10495900;28;20181;-79
2021/08/05 05:42:35;;;;;;;91.63;56.53;;;;;16.60;100498.00;;;;10496157;28;20558;-78
2021/08/05 05:47:37;;;;;;;89.93;56.15;;;;;17.00;100510.00;;;;10478806;28;20193;-78
2021/08/05 05:52:42;;;;;;;90.03;58.92;;;;;17.40;100512.00;;;;10511934;28;20215;-79
2021/08/05 05:57:44;;;;;;;90.40;58.13;;;;;17.90;100507.00;;;;10511750;28;20228;-80
2021/08/05 06:02:46;;;;;;;78.30;54.22;;;;;18.60;100520.00;;;;10512568;28;20283;-80
2021/08/05 06:07:51;;;;;;;66.75;51.67;;;;;19.20;100543.00;;;;10495176;28;20200;-79
2021/08/05 06:12:53;;;;;;;53.03;45.78;;;;;18.90;100547.00;;;;10495619;28;20213;-79
2021/08/05 06:17:55;;;;;;;57.22;47.03;;;;;19.10;100549.00;;;;10528869;28;20193;-79
2021/08/05 06:22:57;;;;;;;56.67;45.40;;;;;19.70;100563.00;;;;10533164;28;20189;-79
2021/08/05 06:27:59;;;;;;;52.08;45.55;;;;;20.20;100563.00;;;;10536457;28;20330;-80
2021/08/05 06:33:01;;;;;;;49.42;41.42;;;;;20.60;100562.00;;;;10520092;28;20220;-79
2021/08/05 06:38:03;;;;;;;47.78;41.67;;;;;20.90;100564.00;;;;10512149;28;20809;-79
2021/08/05 06:43:05;;;;;;;52.35;41.45;;;;;21.20;100563.00;;;;10495257;28;20199;-79
2021/08/05 06:48:08;;;;;;;44.90;39.78;;;;;21.50;100557.00;;;;10512473;28;20279;-80
2021/08/05 06:53:10;;;;;;;43.22;38.53;;;;;21.70;100549.00;;;;10560236;28;20188;-80
2021/08/05 06:58:19;;;;;;;42.60;38.10;;;;;21.90;100543.00;;;;10496472;28;20287;-80
2021/08/05 07:03:21;;;;;;;42.45;38.03;;;;;22.30;100552.00;;;;10511350;28;20203;-80
2021/08/05 07:08:23;;;;;;;45.20;40.42;;;;;22.80;100548.00;;;;10521273;28;20196;-79
2021/08/05 07:13:25;;;;;;;43.55;39.25;;;;;23.60;100536.00;;;;10506224;28;20559;-79
2021/08/05 07:18:27;;;;;;;45.08;40.20;;;;;23.60;100543.00;;;;10544337;28;20189;-79
2021/08/05 07:23:29;;;;;;;43.75;38.78;;;;;24.10;100532.00;;;;10568113;28;20189;-79
2021/08/05 07:28:31;;;;;;;39.80;35.60;;;;;24.90;100520.00;;;;10542459;28;20603;-79
2021/08/05 07:33:33;;;;;;;39.88;35.80;;;;;25.10;100517.00;;;;10526124;28;20303;-79
2021/08/05 07:38:35;;;;;;;42.67;38.03;;;;;25.10;100505.00;;;;10525914;28;20556;-79
2021/08/05 07:43:37;;;;;;;43.40;37.28;;;;;25.20;100502.00;;;;10529095;28;20266;-79
2021/08/05 07:48:39;;;;;;;41.08;36.70;;;;;25.50;100494.00;;;;10568621;28;20215;-78
2021/08/05 07:53:41;;;;;;;40.97;36.78;;;;;25.80;100486.00;;;;10568394;28;20200;-79
2021/08/05 07:58:43;;;;;;;39.08;35.28;;;;;26.10;100485.00;;;;10543999;28;20283;-78
2021/08/05 08:03:45;;;;;;;41.20;36.72;;;;;26.10;100487.00;;;;10549760;28;20203;-78
2021/08/05 08:08:48;;;;;;;38.00;34.25;;;;;25.50;100483.00;;;;10529487;28;20675;-78
2021/08/05 08:13:52;;;;;;;38.00;34.05;;;;;24.60;100494.00;;;;10519643;28;20194;-78
2021/08/05 08:18:53;;;;;;;40.45;36.30;;;;;24.70;100490.00;;;;10562034;28;20262;-78
2021/08/05 08:23:55;;;;;;;36.28;32.67;;;;;24.20;100492.00;;;;10545030;28;20643;-78
2021/08/05 08:28:57;;;;;;;33.80;30.50;;;;;25.00;100478.00;;;;10560933;28;20219;-78
2021/08/05 08:33:59;;;;;;;32.40;29.20;;;;;25.60;100477.00;;;;10504564;28;20220;-78
2021/08/05 08:39:03;;;;;;;31.42;28.17;;;;;26.40;100471.00;;;;10539476;28;20199;-78
2021/08/05 08:44:05;;;;;;;27.55;25.05;;;;;27.00;100467.00;;;;10560318;28;20566;-79
2021/08/05 08:49:08;;;;;;;27.40;24.83;;;;;27.80;100466.00;;;;10577149;28;20205;-78
2021/08/05 08:54:10;;;;;;;27.20;24.60;;;;;28.10;100463.00;;;;10559844;28;20839;-79
2021/08/05 08:59:12;;;;;;;25.30;23.02;;;;;28.40;100461.00;;;;10552814;28;20189;-79
2021/08/05 09:04:15;;;;;;;20.95;18.88;;;;;27.30;100457.00;;;;10532202;28;20212;-79
2021/08/05 09:09:17;;;;;;;22.52;20.27;;;;;25.80;100452.00;;;;10570765;28;20201;-79
2021/08/05 09:14:39;;;;;;;22.35;20.23;;;;;24.50;100449.00;;;;10534469;28;20193;-79
2021/08/05 09:19:42;;;;;;;17.42;15.85;;;;;23.60;100444.00;;;;10505539;28;20188;-78
2021/08/05 09:24:44;;;;;;;18.90;17.00;;;;;23.00;100445.00;;;;10523736;28;20193;-78
2021/08/05 09:29:45;;;;;;;31.38;28.05;;;;;22.70;100447.00;;;;10499821;28;20213;-78
2021/08/05 09:34:48;;;;;;;33.13;29.58;;;;;22.40;100458.00;;;;10515930;28;20225;-78
2021/08/05 09:39:49;;;;;;;21.80;19.50;;;;;22.30;100453.00;;;;10515858;28;20195;-78
2021/08/05 09:44:53;;;;;;;29.00;24.88;;;;;22.40;100445.00;;;;10532704;28;20580;-78
2021/08/05 09:49:56;;;;;;;31.50;28.30;;;;;22.40;100436.00;;;;10515669;28;20216;-78
2021/08/05 09:55:01;;;;;;;30.00;26.85;;;;;22.60;100448.00;;;;10565260;27;20643;-78
2021/08/05 10:00:14;;;;;;;31.08;27.67;;;;;22.70;100442.00;;;;10599222;27;20191;-78
2021/08/05 10:05:18;;;;;;;33.05;29.58;;;;;23.10;100425.00;;;;10597996;27;20190;-77
2021/08/05 10:10:24;;;;;;;25.55;23.05;;;;;23.80;100422.00;;;;10615339;27;20290;-78
2021/08/05 10:15:28;;;;;;;28.83;25.77;;;;;24.60;100418.00;;;;10581430;27;20187;-78
2021/08/05 10:20:30;;;;;;;31.58;28.40;;;;;25.20;100418.00;;;;10597986;27;20188;-78
2021/08/05 10:25:33;;;;;;;31.30;25.85;;;;;25.70;100405.00;;;;10587823;28;20196;-78
2021/08/05 10:30:36;;;;;;;23.77;21.30;;;;;26.10;100400.00;;;;10528807;28;20679;-78
2021/08/05 10:35:38;;;;;;;17.27;14.13;;;;;26.20;100396.00;;;;10513419;28;20259;-78
2021/08/05 10:40:40;;;;;;;13.98;12.65;;;;;26.70;100394.00;;;;10529257;28;20180;-77
2021/08/05 10:45:43;;;;;;;18.58;16.65;;;;;27.30;100386.00;;;;10529161;28;20262;-78
2021/08/05 10:50:47;;;;;;;24.02;21.63;;;;;27.10;100381.00;;;;10547171;28;20291;-78
2021/08/05 10:55:50;;;;;;;18.40;16.60;;;;;27.40;100371.00;;;;10585963;27;20200;-78
2021/08/05 11:00:54;;;;;;;13.90;12.45;;;;;27.90;100372.00;;;;10556515;27;20192;-78
2021/08/05 11:05:58;;;;;;;11.60;10.40;;;;;27.50;100363.00;;;;10553924;28;20298;-78
2021/08/05 11:11:25;;;;;;;15.77;13.10;;;;;27.10;100363.00;;;;10570695;28;20200;-78
2021/08/05 11:16:52;;;;;;;12.32;11.02;;;;;26.60;100358.00;;;;10588780;28;20187;-78
2021/08/05 11:21:55;;;;;;;13.73;12.43;;;;;26.00;100350.00;;;;10523892;28;20197;-79
2021/08/05 11:27:14;;;;;;;13.82;12.43;;;;;25.20;100349.00;;;;10527681;28;20193;-78
2021/08/05 11:32:25;;;;;;;14.75;13.23;;;;;24.90;100337.00;;;;10511194;28;20585;-78
2021/08/05 11:37:28;;;;;;;15.70;12.63;;;;;25.40;100318.00;;;;10527461;28;20195;-78
2021/08/05 11:42:30;;;;;;;13.77;10.93;;;;;26.70;100322.00;;;;10532784;28;20207;-78
2021/08/05 11:47:35;;;;;;;12.80;11.60;;;;;27.30;100321.00;;;;10568655;28;20192;-78
2021/08/05 11:52:43;;;;;;;13.25;11.10;;;;;27.40;100305.00;;;;10550506;28;20243;-78
2021/08/05 11:57:56;;;;;;;13.50;11.15;;;;;27.50;100299.00;;;;10527843;28;20544;-78
2021/08/05 12:03:07;;;;;;;11.18;10.07;;;;;27.70;100286.00;;;;10509690;28;20185;-79
2021/08/05 12:08:10;;;;;;;11.52;10.32;;;;;27.70;100292.00;;;;10493625;28;20652;-78
2021/08/05 12:13:17;;;;;;;4.35;3.95;;;;;27.90;100287.00;;;;10493046;28;20212;-79
2021/08/05 12:18:27;;;;;;;3.88;3.00;;;;;28.70;100277.00;;;;10541156;28;20223;-79
2021/08/05 12:23:34;;;;;;;3.97;3.03;;;;;28.60;100274.00;;;;10518072;28;20597;-79
2021/08/05 12:28:40;;;;;;;5.43;3.40;;;;;28.20;100268.00;;;;10529061;28;20197;-78
2021/08/05 12:33:43;;;;;;;3.38;3.08;;;;;29.20;100265.00;;;;10541585;28;20216;-79
2021/08/05 12:38:56;;;;;;;3.60;3.30;;;;;29.30;100258.00;;;;10493498;28;20595;-79
2021/08/05 12:44:20;;;;;;;5.15;3.78;;;;;28.70;100255.00;;;;10508344;28;20580;-79
2021/08/05 12:49:33;;;;;;;4.15;3.75;;;;;28.40;100262.00;;;;10542212;28;20189;-79
2021/08/05 12:54:35;;;;;;;5.93;3.90;;;;;28.50;100250.00;;;;10531070;28;20199;-79
2021/08/05 12:59:50;;;;;;;4.60;3.20;;;;;29.70;100245.00;;;;10554618;28;20201;-79
2021/08/05 13:05:07;;;;;;;5.32;3.55;;;;;30.10;100239.00;;;;10498648;28;20224;-79
2021/08/05 13:10:09;;;;;;;5.60;3.35;;;;;30.50;100228.00;;;;10515043;28;20232;-79
2021/08/05 13:15:28;;;;;;;3.50;3.20;;;;;30.60;100218.00;;;;10515438;28;20185;-79
2021/08/05 13:20:32;;;;;;;3.55;2.88;;;;;30.70;100224.00;;;;10515612;28;20239;-79
2021/08/05 13:25:41;;;;;;;3.03;2.58;;;;;29.60;100216.00;;;;10499664;28;20243;-79
2021/08/05 13:30:45;;;;;;;2.72;2.28;;;;;30.00;100209.00;;;;10497639;28;20213;-80
2021/08/05 13:35:48;;;;;;;2.92;2.50;;;;;29.70;100202.00;;;;10514202;28;20219;-80
2021/08/05 13:40:55;;;;;;;3.53;2.88;;;;;29.80;100190.00;;;;10545912;28;20190;-79
2021/08/05 13:45:57;;;;;;;2.65;2.10;;;;;30.30;100181.00;;;;10555312;28;20185;-80
2021/08/05 13:50:58;;;;;;;2.22;2.05;;;;;30.90;100171.00;;;;10503549;28;20204;-80
2021/08/05 13:56:03;;;;;;;7.63;2.30;;;;;31.00;100171.00;;;;10513613;28;20209;-80
2021/08/05 14:01:05;;;;;;;2.58;1.90;;;;;31.70;100161.00;;;;10529095;28;20263;-79
2021/08/05 14:06:07;;;;;;;3.35;2.35;;;;;32.30;100147.00;;;;10512501;28;20215;-79
2021/08/05 14:11:09;;;;;;;3.03;2.20;;;;;32.70;100147.00;;;;10529072;28;20224;-79
2021/08/05 14:16:11;;;;;;;2.65;2.10;;;;;33.40;100140.00;;;;10538897;28;20578;-79
2021/08/05 14:21:15;;;;;;;2.30;2.10;;;;;34.70;100139.00;;;;10555246;28;20185;-80
2021/08/05 14:26:17;;;;;;;4.13;2.30;;;;;36.00;100123.00;;;;10528870;28;20243;-80
2021/08/05 14:31:20;;;;;;;2.72;2.35;;;;;30.60;100133.00;;;;10512771;28;20263;-80
2021/08/05 14:36:22;;;;;;;3.20;2.40;;;;;32.70;100108.00;;;;10573321;28;20619;-79
2021/08/05 14:41:24;;;;;;;2.10;2.00;;;;;37.30;100108.00;;;;10553682;28;20196;-80
2021/08/05 14:46:28;;;;;;;2.45;1.88;;;;;35.20;100122.00;;;;10524699;28;20232;-79
2021/08/05 14:51:30;;;;;;;2.00;1.80;;;;;30.50;100112.00;;;;10494634;28;20976;-79
2021/08/05 14:56:32;;;;;;;2.10;1.95;;;;;37.00;100087.00;;;;10606124;27;20199;-79
2021/08/05 15:01:38;;;;;;;1.85;1.70;;;;;32.00;100116.00;;;;10612618;27;20195;-79
2021/08/05 15:06:42;;;;;;;3.45;1.92;;;;;33.30;100088.00;;;;10596048;27;20190;-79
2021/08/05 15:11:44;;;;;;;2.10;1.90;;;;;29.90;100094.00;;;;10611784;27;20206;-80
2021/08/05 15:16:46;;;;;;;3.17;1.92;;;;;28.10;100088.00;;;;10595895;27;20206;-79
2021/08/05 15:21:48;;;;;;;2.75;2.00;;;;;28.30;100064.00;;;;10551770;28;20717;-79
2021/08/05 15:26:50;;;;;;;2.03;1.70;;;;;29.60;100053.00;;;;10569493;28;20832;-79
2021/08/05 15:31:52;;;;;;;3.92;1.65;;;;;34.90;100049.00;;;;10587044;28;20239;-79
2021/08/05 15:36:54;;;;;;;1.77;1.67;;;;;31.50;100044.00;;;;10517745;28;20292;-79
2021/08/05 15:41:56;;;;;;;1.63;1.52;;;;;31.00;100046.00;;;;10535300;28;20200;-79
2021/08/05 15:46:58;;;;;;;1.88;1.65;;;;;33.90;100037.00;;;;10568591;28;20188;-79
2021/08/05 15:52:00;;;;;;;2.22;1.80;;;;;36.90;100027.00;;;;10552041;28;20204;-80
2021/08/05 15:57:04;;;;;;;1.85;1.65;;;;;31.10;100039.00;;;;10544868;28;20197;-80
2021/08/05 16:02:06;;;;;;;1.83;1.73;;;;;29.30;100026.00;;;;10511052;28;20192;-80
2021/08/05 16:07:09;;;;;;;1.75;1.65;;;;;29.20;100027.00;;;;10534398;28;20188;-79
2021/08/05 16:12:10;;;;;;;2.63;1.75;;;;;27.60;100022.00;;;;10517763;28;20216;-79
2021/08/05 16:17:12;;;;;;;2.22;2.00;;;;;27.10;100022.00;;;;10533201;28;20252;-79
2021/08/05 16:22:14;;;;;;;1.73;1.63;;;;;27.10;100018.00;;;;10567658;28;20187;-79
2021/08/05 16:27:16;;;;;;;1.85;1.70;;;;;27.20;100014.00;;;;10567221;28;20191;-79
2021/08/05 16:32:18;;;;;;;2.05;1.85;;;;;26.70;100010.00;;;;10551592;28;20224;-79
2021/08/05 16:37:20;;;;;;;1.55;1.45;;;;;26.10;100010.00;;;;10557950;28;20196;-79
2021/08/05 16:42:22;;;;;;;3.15;1.60;;;;;25.80;99994.00;;;;10558002;27;20233;-79
2021/08/05 16:47:25;;;;;;;2.75;1.77;;;;;25.50;99994.00;;;;10557797;28;20651;-79
2021/08/05 16:52:27;;;;;;;3.92;2.20;;;;;25.10;99980.00;;;;10540550;28;20208;-79
2021/08/05 16:57:28;;;;;;;1.65;1.55;;;;;24.70;99979.00;;;;10549379;28;20639;-79
2021/08/05 17:02:30;;;;;;;3.00;1.90;;;;;24.30;99976.00;;;;10532521;28;20185;-79
2021/08/05 17:07:33;;;;;;;1.88;1.58;;;;;24.40;99967.00;;;;10532844;28;20196;-79
2021/08/05 17:12:35;;;;;;;2.38;1.77;;;;;24.60;99974.00;;;;10530876;28;20205;-79
2021/08/05 17:17:37;;;;;;;2.90;2.03;;;;;24.90;99969.00;;;;10531716;28;20185;-79
2021/08/05 17:22:39;;;;;;;1.75;1.63;;;;;24.80;99968.00;;;;10517800;28;20243;-79
2021/08/05 17:27:42;;;;;;;3.40;1.83;;;;;24.80;99974.00;;;;10539839;28;20188;-79
2021/08/05 17:32:44;;;;;;;3.25;1.70;;;;;24.60;99964.00;;;;10539678;28;20228;-79
2021/08/05 17:37:46;;;;;;;2.03;1.70;;;;;24.40;99953.00;;;;10564736;28;20208;-79
2021/08/05 17:42:49;;;;;;;3.50;1.63;;;;;24.20;99952.00;;;;10514515;28;20720;-79
2021/08/05 17:47:52;;;;;;;3.42;2.55;;;;;24.50;99945.00;;;;10529215;28;20193;-79
2021/08/05 17:52:56;;;;;;;1.70;1.60;;;;;24.50;99939.00;;;;10511157;27;20204;-79
2021/08/05 17:57:59;;;;;;;3.28;2.15;;;;;24.20;99948.00;;;;10597848;27;20195;-79
2021/08/05 18:03:01;;;;;;;3.10;2.00;;;;;23.80;99947.00;;;;10564251;27;20210;-80
2021/08/05 18:08:07;;;;;;;4.20;1.77;;;;;23.70;99943.00;;;;10582499;28;20195;-80
2021/08/05 18:13:09;;;;;;;2.70;1.98;;;;;23.50;99941.00;;;;10554643;28;20200;-79
2021/08/05 18:18:11;;;;;;;4.63;1.85;;;;;23.20;99942.00;;;;10554264;28;20199;-79
2021/08/05 18:23:14;;;;;;;2.30;2.10;;;;;22.90;99932.00;;;;10530544;28;20197;-80
2021/08/05 18:28:16;;;;;;;1.95;1.70;;;;;22.60;99937.00;;;;10512695;28;20356;-79
2021/08/05 18:33:18;;;;;;;3.15;2.00;;;;;22.40;99930.00;;;;10553360;28;20216;-79
2021/08/05 18:38:20;;;;;;;2.35;1.98;;;;;22.30;99942.00;;;;10553483;28;20211;-80
2021/08/05 18:43:22;;;;;;;2.45;1.90;;;;;22.20;99934.00;;;;10534828;28;20201;-79
2021/08/05 18:48:24;;;;;;;2.95;1.90;;;;;22.20;99928.00;;;;10552484;28;20237;-80
2021/08/05 18:53:26;;;;;;;5.43;3.13;;;;;22.00;99936.00;;;;10519693;28;20219;-79
2021/08/05 18:58:27;;;;;;;3.03;2.22;;;;;21.80;99936.00;;;;10535584;28;20196;-79
2021/08/05 19:03:29;;;;;;;3.17;2.42;;;;;21.60;99936.00;;;;10518870;28;20614;-79
2021/08/05 19:08:32;;;;;;;3.70;2.25;;;;;21.50;99937.00;;;;10535091;28;20245;-79
2021/08/05 19:13:34;;;;;;;3.60;1.77;;;;;21.30;99933.00;;;;10552236;28;20231;-79
2021/08/05 19:18:36;;;;;;;4.18;2.20;;;;;21.10;99932.00;;;;10568761;28;20180;-78
2021/08/05 19:23:37;;;;;;;2.38;2.17;;;;;20.90;99924.00;;;;10551401;28;20192;-79
2021/08/05 19:28:40;;;;;;;2.45;1.92;;;;;20.80;99928.00;;;;10518691;28;20242;-79
2021/08/05 19:33:42;;;;;;;2.22;2.03;;;;;20.70;99919.00;;;;10584591;28;20219;-79
2021/08/05 19:38:44;;;;;;;3.55;2.20;;;;;20.70;99922.00;;;;10593950;27;20187;-79
2021/08/05 19:43:46;;;;;;;3.45;2.70;;;;;20.80;99914.00;;;;10560709;27;20198;-79
2021/08/05 19:48:48;;;;;;;2.67;2.00;;;;;20.80;99924.00;;;;10594141;27;20199;-79
2021/08/05 19:53:50;;;;;;;2.40;2.20;;;;;20.70;99923.00;;;;10594303;27;20207;-78
2021/08/05 19:58:53;;;;;;;2.97;2.50;;;;;20.40;99916.00;;;;10597183;27;20196;-79
2021/08/05 20:03:56;;;;;;;5.53;2.28;;;;;20.20;99916.00;;;;10578052;27;20209;-79
2021/08/05 20:08:57;;;;;;;2.80;2.53;;;;;20.10;99906.00;;;;10609283;27;20196;-79
2021/08/05 20:14:02;;;;;;;2.97;2.70;;;;;20.10;99896.00;;;;10592564;28;20264;-79
2021/08/05 20:19:04;;;;;;;4.43;3.08;;;;;20.10;99890.00;;;;10593100;28;20179;-79
2021/08/05 20:24:07;;;;;;;4.65;2.20;;;;;20.20;99881.00;;;;10558059;28;20196;-80
2021/08/05 20:29:09;;;;;;;3.35;2.58;;;;;20.20;99879.00;;;;10575429;28;20195;-79
2021/08/05 20:34:12;;;;;;;2.83;2.47;;;;;20.20;99886.00;;;;10591758;28;20211;-79
2021/08/05 20:39:15;;;;;;;4.63;2.22;;;;;20.10;99872.00;;;;10575398;28;20196;-79
2021/08/05 20:44:16;;;;;;;2.92;2.25;;;;;20.10;99876.00;;;;10575293;28;20192;-79
2021/08/05 20:49:18;;;;;;;2.60;2.28;;;;;20.10;99880.00;;;;10591720;28;20184;-79
2021/08/05 20:54:21;;;;;;;2.83;2.60;;;;;20.00;99870.00;;;;10591864;28;20207;-79
2021/08/05 20:59:23;;;;;;;2.95;2.65;;;;;20.00;99878.00;;;;10559587;28;20191;-79
2021/08/05 21:04:26;;;;;;;3.20;2.25;;;;;20.00;99864.00;;;;10592780;28;20196;-80
2021/08/05 21:09:27;;;;;;;4.30;2.45;;;;;20.00;99850.00;;;;10559426;28;20756;-79
2021/08/05 21:14:30;;;;;;;4.28;2.67;;;;;20.10;99848.00;;;;10610223;28;20199;-79
2021/08/05 21:19:32;;;;;;;4.05;2.20;;;;;20.10;99836.00;;;;10577326;27;20186;-79
2021/08/05 21:24:34;;;;;;;2.70;2.30;;;;;20.10;99826.00;;;;10560214;27;20670;-79
2021/08/05 21:29:36;;;;;;;3.17;2.35;;;;;20.10;99834.00;;;;10566225;28;20192;-79
2021/08/05 21:34:38;;;;;;;5.07;2.78;;;;;20.10;99829.00;;;;10515599;28;20228;-79
2021/08/05 21:39:40;;;;;;;2.85;1.85;;;;;20.10;99826.00;;;;10516971;28;20215;-79
2021/08/05 21:44:42;;;;;;;2.72;2.03;;;;;20.10;99826.00;;;;10541325;28;20245;-79
2021/08/05 21:49:44;;;;;;;3.13;1.83;;;;;19.90;99826.00;;;;10557516;28;20717;-79
2021/08/05 21:54:46;;;;;;;3.05;2.58;;;;;19.50;99825.00;;;;10546741;27;20208;-79
2021/08/05 21:59:48;;;;;;;3.97;2.33;;;;;19.20;99818.00;;;;10542600;28;20202;-79
2021/08/05 22:04:49;;;;;;;3.25;2.10;;;;;19.10;99798.00;;;;10558154;28;20590;-79
2021/08/05 22:09:52;;;;;;;2.05;1.85;;;;;19.10;99791.00;;;;10539798;28;20199;-79
2021/08/05 22:14:55;;;;;;;2.35;1.70;;;;;19.10;99781.00;;;;10573746;28;20199;-78
2021/08/05 22:19:56;;;;;;;4.63;1.98;;;;;19.10;99769.00;;;;10539363;28;20214;-79
2021/08/05 22:24:58;;;;;;;4.47;1.80;;;;;19.10;99767.00;;;;10580060;27;20244;-79
2021/08/05 22:30:02;;;;;;;2.30;2.10;;;;;19.00;99759.00;;;;10597445;27;20188;-79
2021/08/05 22:35:05;;;;;;;2.30;2.10;;;;;18.90;99748.00;;;;10597978;27;20215;-79
2021/08/05 22:40:07;;;;;;;4.32;2.25;;;;;18.90;99742.00;;;;10597161;27;20187;-79
2021/08/05 22:45:09;;;;;;;2.78;2.10;;;;;19.00;99736.00;;;;10549799;27;20203;-78
2021/08/05 22:50:11;;;;;;;2.42;2.20;;;;;19.00;99723.00;;;;10554516;28;20188;-79
2021/08/05 22:55:13;;;;;;;2.10;1.90;;;;;19.10;99717.00;;;;10538353;28;20208;-79
2021/08/05 23:00:15;;;;;;;3.13;2.38;;;;;19.00;99723.00;;;;10554528;28;20220;-80
2021/08/05 23:05:17;;;;;;;2.58;2.20;;;;;19.00;99721.00;;;;10553585;28;20291;-80
2021/08/05 23:10:19;;;;;;;2.45;1.98;;;;;18.90;99722.00;;;;10552804;28;20196;-79
2021/08/05 23:15:21;;;;;;;3.22;2.15;;;;;18.80;99718.00;;;;10552987;28;20218;-80
2021/08/05 23:20:23;;;;;;;2.80;1.92;;;;;18.70;99717.00;;;;10518286;28;20220;-79
2021/08/05 23:25:25;;;;;;;4.30;2.05;;;;;18.70;99710.00;;;;10552195;28;20192;-78
2021/08/05 23:30:27;;;;;;;4.50;1.77;;;;;18.60;99709.00;;;;10536524;28;20200;-79
2021/08/05 23:35:29;;;;;;;8.43;2.20;;;;;18.50;99708.00;;;;10535823;28;20270;-79
2021/08/05 23:40:31;;;;;;;3.22;1.73;;;;;18.50;99702.00;;;;10552574;28;20196;-79
2021/08/05 23:45:33;;;;;;;2.85;2.00;;;;;18.40;99701.00;;;;10534681;28;20195;-79
2021/08/05 23:50:35;;;;;;;3.40;1.80;;;;;18.40;99701.00;;;;10551558;28;20184;-79
2021/08/05 23:55:38;;;;;;;2.53;1.75;;;;;18.40;99699.00;;;;10535131;28;20262;-79
